Time;durP1;ratioP1;P1;durP2;ratioP2;P2;SDS_P1;SDS_P2;PMS_P1;PMS_P2;Temp;Humidity;BMP_temperature;BMP_pressure;BME280_temperature;BME280_humidity;BME280_pressure;Samples;Min_cycle;Max_cycle;Signal;HPM_P1;HPM_P2
2022/03/17 00:02:08;;;;;;;14.45;10.68;;;;;;;;;;5050944;28;20403;-76
2022/03/17 00:04:34;;;;;;;11.30;9.00;;;;;;;;;;5052837;28;20074;-77
2022/03/17 00:07:00;;;;;;;11.75;9.32;;;;;;;;;;5054584;28;20025;-77
2022/03/17 00:09:27;;;;;;;12.73;10.18;;;;;;;;;;5054668;28;20357;-77
2022/03/17 00:11:53;;;;;;;13.52;10.30;;;;;;;;;;5054457;28;20032;-78
2022/03/17 00:14:20;;;;;;;12.73;9.07;;;;;;;;;;5054590;28;20024;-77
2022/03/17 00:16:46;;;;;;;12.30;9.48;;;;;;;;;;5053239;28;20078;-77
2022/03/17 00:19:12;;;;;;;12.10;9.15;;;;;;;;;;5054533;28;20037;-77
2022/03/17 00:21:39;;;;;;;11.50;8.82;;;;;;;;;;5055085;28;20036;-76
2022/03/17 00:24:08;;;;;;;11.13;8.93;;;;;;;;;;5054738;28;20083;-76
2022/03/17 00:26:38;;;;;;;10.48;8.80;;;;;;;;;;5054965;28;20089;-76
2022/03/17 00:29:07;;;;;;;12.60;10.18;;;;;;;;;;5054643;28;20028;-77
2022/03/17 00:31:34;;;;;;;14.23;10.00;;;;;;;;;;5054802;28;20025;-77
2022/03/17 00:34:01;;;;;;;13.07;10.02;;;;;;;;;;5054587;28;20083;-77
2022/03/17 00:36:27;;;;;;;15.07;10.75;;;;;;;;;;5054686;28;20104;-77
2022/03/17 00:38:53;;;;;;;13.40;11.32;;;;;;;;;;5054400;28;20041;-76
2022/03/17 00:41:19;;;;;;;14.05;11.32;;;;;;;;;;5054647;28;20112;-77
2022/03/17 00:43:45;;;;;;;15.57;11.57;;;;;;;;;;5054497;28;20102;-77
2022/03/17 00:46:11;;;;;;;17.95;12.38;;;;;;;;;;5054356;28;20108;-77
2022/03/17 00:48:37;;;;;;;14.80;11.90;;;;;;;;;;5054599;28;20035;-77
2022/03/17 00:51:05;;;;;;;12.60;9.75;;;;;;;;;;5054092;28;20428;-77
2022/03/17 00:53:31;;;;;;;11.30;9.98;;;;;;;;;;5053870;28;20522;-77
2022/03/17 00:55:57;;;;;;;12.38;9.60;;;;;;;;;;5054062;28;20037;-77
2022/03/17 00:58:23;;;;;;;11.77;9.70;;;;;;;;;;5054315;28;20472;-77
2022/03/17 01:00:49;;;;;;;13.13;10.13;;;;;;;;;;5054405;28;20534;-77
2022/03/17 01:03:16;;;;;;;12.63;9.50;;;;;;;;;;5054130;28;20032;-77
2022/03/17 01:05:42;;;;;;;10.70;9.23;;;;;;;;;;5054265;28;20104;-77
2022/03/17 01:08:08;;;;;;;14.13;9.68;;;;;;;;;;5053816;28;20025;-77
2022/03/17 01:10:35;;;;;;;12.30;10.02;;;;;;;;;;5054339;28;20032;-78
2022/03/17 01:13:03;;;;;;;11.55;9.48;;;;;;;;;;5052574;28;20116;-78
2022/03/17 01:15:30;;;;;;;13.20;9.45;;;;;;;;;;5053369;28;20032;-78
2022/03/17 01:17:59;;;;;;;14.90;9.57;;;;;;;;;;5035818;28;20036;-78
2022/03/17 01:20:26;;;;;;;13.85;9.98;;;;;;;;;;5053845;28;20048;-77
2022/03/17 01:22:52;;;;;;;11.52;9.27;;;;;;;;;;5053937;28;20434;-77
2022/03/17 01:25:18;;;;;;;11.75;9.32;;;;;;;;;;5053824;28;20094;-75
2022/03/17 01:27:45;;;;;;;14.07;8.82;;;;;;;;;;5052357;28;20028;-76
2022/03/17 01:30:12;;;;;;;10.75;9.43;;;;;;;;;;5052067;28;20107;-78
2022/03/17 01:32:38;;;;;;;13.43;9.80;;;;;;;;;;5052429;28;20028;-78
2022/03/17 01:35:07;;;;;;;11.57;8.95;;;;;;;;;;5053454;28;20158;-77
2022/03/17 01:37:33;;;;;;;15.20;10.88;;;;;;;;;;5053653;28;20045;-78
2022/03/17 01:39:59;;;;;;;12.05;9.98;;;;;;;;;;5053277;28;20034;-77
2022/03/17 01:42:27;;;;;;;15.95;10.90;;;;;;;;;;5053673;28;20103;-78
2022/03/17 01:44:55;;;;;;;16.30;11.70;;;;;;;;;;5052186;28;20025;-76
2022/03/17 01:47:27;;;;;;;12.23;9.75;;;;;;;;;;5053301;28;20025;-77
2022/03/17 01:49:55;;;;;;;12.50;10.30;;;;;;;;;;5053613;28;20025;-77
2022/03/17 01:52:21;;;;;;;13.55;10.85;;;;;;;;;;5053074;28;20041;-77
2022/03/17 01:54:47;;;;;;;13.70;10.65;;;;;;;;;;5053378;28;20029;-76
2022/03/17 01:57:13;;;;;;;16.02;10.98;;;;;;;;;;5053046;28;20029;-77
2022/03/17 01:59:40;;;;;;;13.50;9.93;;;;;;;;;;5053156;28;20494;-77
2022/03/17 02:02:10;;;;;;;15.55;10.90;;;;;;;;;;5052910;28;20099;-77
2022/03/17 02:04:37;;;;;;;16.30;11.00;;;;;;;;;;5053188;28;20105;-77
2022/03/17 02:07:05;;;;;;;17.63;11.32;;;;;;;;;;5052808;28;20469;-77
2022/03/17 02:09:32;;;;;;;15.02;11.30;;;;;;;;;;5053070;28;20052;-77
2022/03/17 02:14:50;;;;;;;14.20;9.68;;;;;;;;;;5053078;28;20446;-78
2022/03/17 02:17:16;;;;;;;16.17;11.13;;;;;;;;;;5053112;28;20485;-77
2022/03/17 02:19:42;;;;;;;11.05;9.82;;;;;;;;;;5052746;28;20037;-77
2022/03/17 02:22:12;;;;;;;13.15;10.40;;;;;;;;;;5053102;28;20078;-77
2022/03/17 02:27:25;;;;;;;15.63;12.18;;;;;;;;;;5052861;28;20067;-77
2022/03/17 02:29:52;;;;;;;13.23;11.20;;;;;;;;;;5052966;28;20021;-77
2022/03/17 02:32:18;;;;;;;14.35;10.35;;;;;;;;;;5052967;28;20074;-77
2022/03/17 02:34:44;;;;;;;14.00;10.65;;;;;;;;;;5052764;28;20476;-78
2022/03/17 02:37:12;;;;;;;15.85;9.48;;;;;;;;;;5052959;28;20040;-77
2022/03/17 02:39:39;;;;;;;11.45;9.25;;;;;;;;;;5052781;28;20396;-77
2022/03/17 02:42:05;;;;;;;13.57;10.10;;;;;;;;;;5052785;28;20041;-77
2022/03/17 02:44:32;;;;;;;14.40;9.75;;;;;;;;;;5052631;28;20032;-78
2022/03/17 02:46:59;;;;;;;14.88;10.15;;;;;;;;;;5052639;28;20387;-78
2022/03/17 02:49:30;;;;;;;13.65;10.30;;;;;;;;;;5052465;28;20040;-78
2022/03/17 02:51:56;;;;;;;13.13;9.63;;;;;;;;;;5052524;28;20494;-78
2022/03/17 02:54:24;;;;;;;14.38;9.77;;;;;;;;;;5052202;28;20037;-77
2022/03/17 02:57:00;;;;;;;11.80;9.25;;;;;;;;;;5051279;28;20087;-78
2022/03/17 02:59:26;;;;;;;10.75;9.27;;;;;;;;;;5052192;28;20075;-78
2022/03/17 03:01:52;;;;;;;11.15;8.88;;;;;;;;;;5034904;28;20120;-78
2022/03/17 03:04:19;;;;;;;11.10;8.70;;;;;;;;;;5052183;28;20021;-78
2022/03/17 03:06:46;;;;;;;11.20;9.57;;;;;;;;;;5051201;28;20086;-77
2022/03/17 03:09:13;;;;;;;11.77;9.75;;;;;;;;;;5052313;28;20060;-78
2022/03/17 03:11:39;;;;;;;10.77;9.32;;;;;;;;;;5052104;28;20381;-78
2022/03/17 03:14:09;;;;;;;12.25;8.93;;;;;;;;;;5034631;28;20086;-78
2022/03/17 03:16:35;;;;;;;10.93;8.63;;;;;;;;;;5051945;28;20109;-78
2022/03/17 03:19:02;;;;;;;12.80;9.27;;;;;;;;;;5052183;28;20044;-77
2022/03/17 03:21:28;;;;;;;11.23;9.05;;;;;;;;;;5051703;28;20028;-77
2022/03/17 03:23:55;;;;;;;14.93;10.35;;;;;;;;;;5052120;28;20101;-77
2022/03/17 03:26:21;;;;;;;12.35;10.38;;;;;;;;;;5051841;28;20028;-78
2022/03/17 03:28:49;;;;;;;12.07;9.85;;;;;;;;;;5052179;28;20032;-78
2022/03/17 03:31:16;;;;;;;12.27;9.65;;;;;;;;;;5051894;28;20021;-77
2022/03/17 03:33:42;;;;;;;12.13;9.10;;;;;;;;;;5050614;28;20040;-77
2022/03/17 03:38:53;;;;;;;11.80;10.20;;;;;;;;;;5052560;28;20048;-77
2022/03/17 03:41:19;;;;;;;10.75;9.65;;;;;;;;;;5055728;28;20021;-77
2022/03/17 03:43:45;;;;;;;11.55;9.82;;;;;;;;;;5055761;28;20529;-77
2022/03/17 03:46:11;;;;;;;12.73;10.40;;;;;;;;;;5055579;28;20052;-78
2022/03/17 03:48:38;;;;;;;14.05;9.88;;;;;;;;;;5055551;28;20039;-77
2022/03/17 03:51:05;;;;;;;11.63;9.93;;;;;;;;;;5055803;28;20431;-78
2022/03/17 03:54:13;;;;;;;12.85;9.93;;;;;;;;;;5056587;28;20132;-77
2022/03/17 03:56:29;;;;;;;11.75;10.07;;;;;;;;;;5055258;28;20064;-79
2022/03/17 03:58:57;;;;;;;14.07;10.27;;;;;;;;;;5055148;28;20076;-76
2022/03/17 04:01:25;;;;;;;12.60;10.52;;;;;;;;;;5055445;28;20051;-77
2022/03/17 04:03:54;;;;;;;15.45;11.15;;;;;;;;;;5055127;28;20037;-78
2022/03/17 04:06:20;;;;;;;15.35;9.80;;;;;;;;;;5054111;28;20392;-77
2022/03/17 04:08:46;;;;;;;14.10;10.75;;;;;;;;;;5055168;28;20033;-78
2022/03/17 04:11:12;;;;;;;11.63;10.23;;;;;;;;;;5055184;28;20484;-78
2022/03/17 04:13:38;;;;;;;14.55;10.65;;;;;;;;;;5055188;28;20487;-78
2022/03/17 04:16:04;;;;;;;12.85;10.80;;;;;;;;;;5054995;28;20025;-77
2022/03/17 04:18:31;;;;;;;13.35;10.27;;;;;;;;;;5054976;28;20025;-76
2022/03/17 04:20:57;;;;;;;13.80;10.65;;;;;;;;;;5054899;28;20124;-77
2022/03/17 04:23:23;;;;;;;13.77;10.88;;;;;;;;;;5055114;28;20032;-77
2022/03/17 04:25:49;;;;;;;15.13;10.95;;;;;;;;;;5054792;28;20039;-78
2022/03/17 04:28:16;;;;;;;12.43;10.70;;;;;;;;;;5054911;28;20376;-77
2022/03/17 04:30:42;;;;;;;13.85;11.07;;;;;;;;;;5054989;28;20021;-77
2022/03/17 04:33:08;;;;;;;21.30;13.13;;;;;;;;;;5054833;28;20486;-77
2022/03/17 04:35:34;;;;;;;17.13;11.77;;;;;;;;;;5054888;28;20025;-78
2022/03/17 04:38:00;;;;;;;15.07;12.68;;;;;;;;;;5054617;28;20041;-78
2022/03/17 04:40:26;;;;;;;14.20;11.82;;;;;;;;;;5054306;28;20036;-77
2022/03/17 04:42:52;;;;;;;14.38;10.90;;;;;;;;;;5054633;28;20440;-77
2022/03/17 04:45:18;;;;;;;14.90;11.85;;;;;;;;;;5054408;28;20029;-77
2022/03/17 04:47:45;;;;;;;15.50;11.70;;;;;;;;;;5054140;28;20061;-78
2022/03/17 04:50:11;;;;;;;12.75;10.68;;;;;;;;;;5053389;28;20029;-77
2022/03/17 04:55:22;;;;;;;12.40;9.13;;;;;;;;;;5054552;28;20064;-77
2022/03/17 04:57:48;;;;;;;16.05;10.90;;;;;;;;;;5054400;28;20036;-77
2022/03/17 05:00:14;;;;;;;14.43;10.75;;;;;;;;;;5054309;28;20079;-76
2022/03/17 05:02:40;;;;;;;16.35;12.73;;;;;;;;;;5054260;28;20090;-76
2022/03/17 05:05:07;;;;;;;14.85;12.07;;;;;;;;;;5053127;28;20028;-77
2022/03/17 05:07:34;;;;;;;18.88;13.38;;;;;;;;;;5054021;28;20037;-76
2022/03/17 05:10:01;;;;;;;19.85;14.70;;;;;;;;;;5053706;28;20021;-76
2022/03/17 05:12:27;;;;;;;18.65;14.05;;;;;;;;;;5052975;28;20033;-76
2022/03/17 05:14:53;;;;;;;22.25;16.38;;;;;;;;;;5053842;28;20031;-76
2022/03/17 05:17:19;;;;;;;20.65;15.48;;;;;;;;;;5053996;28;20032;-77
2022/03/17 05:19:45;;;;;;;26.40;17.52;;;;;;;;;;5054176;28;20114;-77
2022/03/17 05:22:12;;;;;;;20.65;16.65;;;;;;;;;;5053742;28;20068;-78
2022/03/17 05:24:38;;;;;;;19.92;15.35;;;;;;;;;;5056660;28;20123;-77
2022/03/17 05:27:04;;;;;;;19.90;15.65;;;;;;;;;;5054381;28;20497;-77
2022/03/17 05:29:30;;;;;;;21.17;14.13;;;;;;;;;;5053888;28;20447;-77
2022/03/17 05:31:56;;;;;;;23.23;17.38;;;;;;;;;;5053705;28;20468;-77
2022/03/17 05:34:22;;;;;;;23.88;16.85;;;;;;;;;;5053322;28;20032;-78
2022/03/17 05:36:48;;;;;;;19.27;14.07;;;;;;;;;;5053596;28;20071;-77
2022/03/17 05:39:14;;;;;;;19.70;14.75;;;;;;;;;;5052821;28;20472;-76
2022/03/17 05:41:41;;;;;;;19.35;15.80;;;;;;;;;;5034613;28;20033;-75
2022/03/17 05:44:08;;;;;;;21.67;17.30;;;;;;;;;;5033314;28;20385;-76
2022/03/17 05:46:34;;;;;;;21.70;17.60;;;;;;;;;;5033638;28;20025;-77
2022/03/17 05:49:01;;;;;;;20.25;16.13;;;;;;;;;;5033439;28;20025;-76
2022/03/17 05:51:27;;;;;;;22.27;17.63;;;;;;;;;;5032905;28;20097;-76
2022/03/17 05:53:53;;;;;;;21.38;17.65;;;;;;;;;;5035003;28;20033;-76
2022/03/17 05:56:19;;;;;;;22.20;17.05;;;;;;;;;;5033219;28;20061;-78
2022/03/17 05:58:45;;;;;;;21.88;16.67;;;;;;;;;;5033101;28;20041;-77
2022/03/17 06:01:11;;;;;;;19.20;16.08;;;;;;;;;;5032980;28;20034;-78
2022/03/17 06:03:37;;;;;;;21.23;16.35;;;;;;;;;;5037343;28;20024;-78
2022/03/17 06:06:03;;;;;;;25.63;17.88;;;;;;;;;;5052942;28;20472;-77
2022/03/17 06:08:30;;;;;;;23.23;16.58;;;;;;;;;;5051474;28;20078;-77
2022/03/17 06:10:56;;;;;;;21.55;14.80;;;;;;;;;;5053112;28;20124;-76
2022/03/17 06:13:22;;;;;;;18.08;15.38;;;;;;;;;;5052529;28;20507;-77
2022/03/17 06:15:48;;;;;;;16.20;13.80;;;;;;;;;;5054692;28;20021;-77
2022/03/17 06:18:14;;;;;;;20.40;14.80;;;;;;;;;;5045479;28;20021;-78
2022/03/17 06:20:40;;;;;;;16.65;14.07;;;;;;;;;;5031848;28;20369;-77
2022/03/17 06:23:07;;;;;;;19.15;14.90;;;;;;;;;;5052986;28;20033;-77
2022/03/17 06:25:34;;;;;;;19.63;15.48;;;;;;;;;;5052056;28;20036;-76
2022/03/17 06:28:00;;;;;;;20.75;16.85;;;;;;;;;;5052438;28;20112;-76
2022/03/17 06:30:27;;;;;;;20.58;17.02;;;;;;;;;;5050920;28;20388;-76
2022/03/17 06:32:54;;;;;;;20.80;16.85;;;;;;;;;;5049669;28;20040;-76
2022/03/17 06:35:24;;;;;;;17.85;15.55;;;;;;;;;;5049270;28;20507;-76
2022/03/17 06:37:52;;;;;;;18.25;14.02;;;;;;;;;;5049592;28;20033;-77
2022/03/17 06:40:18;;;;;;;17.33;13.90;;;;;;;;;;5050900;28;20437;-75
2022/03/17 06:42:45;;;;;;;16.35;14.00;;;;;;;;;;5051578;28;20374;-76
2022/03/17 06:45:11;;;;;;;18.40;14.15;;;;;;;;;;5051422;28;20056;-74
2022/03/17 06:47:38;;;;;;;17.48;14.95;;;;;;;;;;5035073;28;20389;-75
2022/03/17 06:50:05;;;;;;;22.27;17.08;;;;;;;;;;5031670;28;20031;-77
2022/03/17 06:52:31;;;;;;;15.90;12.68;;;;;;;;;;5046199;28;20102;-77
2022/03/17 06:54:57;;;;;;;16.98;13.02;;;;;;;;;;5051271;28;20028;-76
2022/03/17 06:57:24;;;;;;;14.82;13.23;;;;;;;;;;5051138;28;20032;-78
2022/03/17 06:59:51;;;;;;;15.77;11.77;;;;;;;;;;5051090;28;20094;-77
2022/03/17 07:02:17;;;;;;;17.75;14.30;;;;;;;;;;5046230;28;20139;-78
2022/03/17 07:04:44;;;;;;;18.67;14.20;;;;;;;;;;5030667;28;20037;-77
2022/03/17 07:07:10;;;;;;;19.92;15.45;;;;;;;;;;5029927;28;20060;-76
2022/03/17 07:09:36;;;;;;;16.73;14.43;;;;;;;;;;5033264;28;20037;-78
2022/03/17 07:12:03;;;;;;;18.98;14.93;;;;;;;;;;5049072;28;20032;-76
2022/03/17 07:14:29;;;;;;;18.17;16.27;;;;;;;;;;5031480;28;20034;-76
2022/03/17 07:16:56;;;;;;;18.08;14.48;;;;;;;;;;5030907;28;20076;-76
2022/03/17 07:19:22;;;;;;;21.67;16.67;;;;;;;;;;5031600;28;20381;-76
2022/03/17 07:21:48;;;;;;;21.73;16.63;;;;;;;;;;5032480;28;20029;-76
2022/03/17 07:24:15;;;;;;;20.60;16.35;;;;;;;;;;5030775;28;20043;-75
2022/03/17 07:26:42;;;;;;;18.83;14.10;;;;;;;;;;5030425;28;20117;-78
2022/03/17 07:29:11;;;;;;;18.70;14.98;;;;;;;;;;5031176;28;20052;-76
2022/03/17 07:31:37;;;;;;;19.23;15.23;;;;;;;;;;5034551;28;20477;-76
2022/03/17 07:34:03;;;;;;;17.10;13.20;;;;;;;;;;5033925;28;20094;-78
2022/03/17 07:36:30;;;;;;;19.77;15.07;;;;;;;;;;5050195;28;20392;-75
2022/03/17 07:38:56;;;;;;;22.17;17.23;;;;;;;;;;5050303;28;20041;-76
2022/03/17 07:41:23;;;;;;;19.75;14.38;;;;;;;;;;5043832;28;20079;-76
2022/03/17 07:43:49;;;;;;;19.65;16.08;;;;;;;;;;5030352;28;20037;-77
2022/03/17 07:46:15;;;;;;;18.90;14.65;;;;;;;;;;5030468;28;20551;-74
2022/03/17 07:48:43;;;;;;;20.50;15.10;;;;;;;;;;5043967;28;20028;-76
2022/03/17 07:51:09;;;;;;;20.98;16.17;;;;;;;;;;5046665;28;20035;-76
2022/03/17 07:53:36;;;;;;;23.98;15.80;;;;;;;;;;5050539;28;20057;-76
2022/03/17 07:56:03;;;;;;;18.25;14.20;;;;;;;;;;5049325;28;20087;-76
2022/03/17 07:58:30;;;;;;;19.15;16.17;;;;;;;;;;5050301;28;20035;-76
2022/03/17 08:00:56;;;;;;;21.10;15.27;;;;;;;;;;5050491;28;20021;-78
2022/03/17 08:03:23;;;;;;;20.65;17.33;;;;;;;;;;5050406;28;20075;-77
2022/03/17 08:05:50;;;;;;;19.75;16.13;;;;;;;;;;5050083;28;20021;-78
2022/03/17 08:08:17;;;;;;;21.30;17.23;;;;;;;;;;5050421;28;20044;-77
2022/03/17 08:10:43;;;;;;;20.80;15.35;;;;;;;;;;5050573;28;20027;-78
2022/03/17 08:13:09;;;;;;;22.52;17.75;;;;;;;;;;5050268;28;20476;-78
2022/03/17 08:15:39;;;;;;;17.38;14.65;;;;;;;;;;5050228;28;20052;-79
2022/03/17 08:18:09;;;;;;;17.23;14.63;;;;;;;;;;5049776;28;20333;-77
2022/03/17 08:20:38;;;;;;;24.38;16.23;;;;;;;;;;5050060;28;20114;-79
2022/03/17 08:23:05;;;;;;;18.33;14.50;;;;;;;;;;5050121;28;20488;-78
2022/03/17 08:25:31;;;;;;;18.70;15.45;;;;;;;;;;5051189;28;20029;-81
2022/03/17 08:27:57;;;;;;;16.73;14.20;;;;;;;;;;5054133;28;20025;-77
2022/03/17 08:30:23;;;;;;;21.58;17.92;;;;;;;;;;5053450;28;20499;-77
2022/03/17 08:32:49;;;;;;;22.73;17.88;;;;;;;;;;5053693;28;20028;-78
2022/03/17 08:35:17;;;;;;;22.20;18.05;;;;;;;;;;5053028;28;20029;-77
2022/03/17 08:37:44;;;;;;;19.40;16.52;;;;;;;;;;5052639;28;20404;-77
2022/03/17 08:40:11;;;;;;;23.10;19.70;;;;;;;;;;5053367;28;20049;-77
2022/03/17 08:42:37;;;;;;;20.67;14.68;;;;;;;;;;5053593;28;20032;-80
2022/03/17 08:49:18;;;;;;;20.05;16.90;;;;;;;;;;5053845;28;20040;-77
2022/03/17 08:50:34;;;;;;;;;;;;;;;;;;5052385;28;20420;-77
2022/03/17 08:53:01;;;;;;;24.73;17.85;;;;;;;;;;5053188;28;19916;-76
2022/03/17 08:55:27;;;;;;;22.83;18.35;;;;;;;;;;5052675;28;20506;-78
2022/03/17 08:57:53;;;;;;;20.67;17.13;;;;;;;;;;5053039;28;20025;-76
2022/03/17 09:00:19;;;;;;;24.33;18.90;;;;;;;;;;5052639;28;20411;-76
2022/03/17 09:02:48;;;;;;;22.88;18.20;;;;;;;;;;5053146;28;20178;-76
2022/03/17 09:05:14;;;;;;;22.15;17.73;;;;;;;;;;5051065;28;20032;-76
2022/03/17 09:07:41;;;;;;;23.13;17.95;;;;;;;;;;5053150;28;20033;-76
2022/03/17 09:10:07;;;;;;;20.73;15.93;;;;;;;;;;5052794;28;20472;-77
2022/03/17 09:12:33;;;;;;;20.55;17.27;;;;;;;;;;5052751;28;20039;-78
2022/03/17 09:15:00;;;;;;;22.52;17.60;;;;;;;;;;5053447;28;20039;-76
2022/03/17 09:17:26;;;;;;;22.35;17.95;;;;;;;;;;5053336;28;20039;-77
2022/03/17 09:19:53;;;;;;;27.33;20.33;;;;;;;;;;5052218;28;20065;-76
2022/03/17 09:22:19;;;;;;;22.63;17.70;;;;;;;;;;5052270;28;20032;-74
2022/03/17 09:24:48;;;;;;;23.30;17.88;;;;;;;;;;5052759;28;20430;-78
2022/03/17 09:27:15;;;;;;;24.02;19.73;;;;;;;;;;5051573;28;20539;-78
2022/03/17 09:29:41;;;;;;;24.95;19.17;;;;;;;;;;5052971;28;20056;-77
2022/03/17 09:32:09;;;;;;;22.88;17.98;;;;;;;;;;5052121;28;20078;-76
2022/03/17 09:34:36;;;;;;;23.73;18.85;;;;;;;;;;5050404;28;20424;-76
2022/03/17 09:37:02;;;;;;;20.55;16.83;;;;;;;;;;5051959;28;20059;-77
2022/03/17 09:42:18;;;;;;;22.20;17.60;;;;;;;;;;5052464;28;20090;-78
2022/03/17 09:44:47;;;;;;;22.60;18.88;;;;;;;;;;5052526;28;20108;-78
2022/03/17 09:47:20;;;;;;;22.42;19.02;;;;;;;;;;5052309;28;20099;-77
2022/03/17 09:49:46;;;;;;;21.75;17.70;;;;;;;;;;5052363;28;20032;-76
2022/03/17 09:52:14;;;;;;;20.67;15.63;;;;;;;;;;5052223;28;20063;-79
2022/03/17 09:54:44;;;;;;;20.83;15.95;;;;;;;;;;5051009;28;20094;-76
2022/03/17 09:57:10;;;;;;;18.35;15.75;;;;;;;;;;5050185;28;20407;-78
2022/03/17 09:59:36;;;;;;;22.20;19.17;;;;;;;;;;5051602;28;20068;-77
2022/03/17 10:02:02;;;;;;;23.60;19.60;;;;;;;;;;5050726;28;20075;-77
2022/03/17 10:04:35;;;;;;;24.45;19.13;;;;;;;;;;5050692;28;20118;-76
2022/03/17 10:07:01;;;;;;;23.33;19.65;;;;;;;;;;5050092;28;20029;-77
2022/03/17 10:09:30;;;;;;;22.00;17.70;;;;;;;;;;5051809;28;20025;-77
2022/03/17 10:12:05;;;;;;;21.90;17.83;;;;;;;;;;5051834;28;20036;-76
2022/03/17 10:14:51;;;;;;;22.83;19.23;;;;;;;;;;5052033;28;20025;-76
2022/03/17 10:17:31;;;;;;;22.73;17.30;;;;;;;;;;5050650;28;20419;-76
2022/03/17 10:20:15;;;;;;;21.30;16.75;;;;;;;;;;5051200;28;20396;-77
2022/03/17 10:22:41;;;;;;;;;;;;;;;;;;5052053;28;20029;-75
2022/03/17 10:25:08;;;;;;;21.85;15.57;;;;;;;;;;5051251;28;19908;-80
2022/03/17 10:27:41;;;;;;;19.33;15.23;;;;;;;;;;5051343;28;20032;-75
2022/03/17 10:30:07;;;;;;;20.33;15.35;;;;;;;;;;5051070;28;20495;-78
2022/03/17 10:32:34;;;;;;;21.35;17.58;;;;;;;;;;5050855;28;20025;-77
2022/03/17 10:35:00;;;;;;;23.35;18.42;;;;;;;;;;5050087;28;20029;-78
2022/03/17 10:37:30;;;;;;;21.05;16.10;;;;;;;;;;5051179;28;20048;-76
2022/03/17 10:39:59;;;;;;;22.63;16.30;;;;;;;;;;5051010;28;20048;-81
2022/03/17 10:42:30;;;;;;;24.23;17.07;;;;;;;;;;5051000;28;20075;-76
2022/03/17 10:45:06;;;;;;;23.75;18.10;;;;;;;;;;5051080;28;20427;-78
2022/03/17 10:47:34;;;;;;;17.55;14.52;;;;;;;;;;5050385;28;20387;-76
2022/03/17 10:50:01;;;;;;;24.02;15.95;;;;;;;;;;5050102;28;20033;-77
2022/03/17 10:52:56;;;;;;;21.05;16.02;;;;;;;;;;5050820;28;20049;-77
2022/03/17 10:55:26;;;;;;;19.38;15.77;;;;;;;;;;5041574;28;20091;-77
2022/03/17 10:57:54;;;;;;;24.05;16.38;;;;;;;;;;5051014;28;20044;-77
2022/03/17 11:00:24;;;;;;;19.73;15.40;;;;;;;;;;5051115;28;20076;-80
2022/03/17 11:02:53;;;;;;;18.65;15.25;;;;;;;;;;5050898;28;20036;-76
2022/03/17 11:05:20;;;;;;;20.60;16.55;;;;;;;;;;5050609;28;20036;-78
2022/03/17 11:07:46;;;;;;;19.88;15.27;;;;;;;;;;5039622;28;20035;-78
2022/03/17 11:10:16;;;;;;;17.85;14.68;;;;;;;;;;5036339;28;20033;-78
2022/03/17 11:12:45;;;;;;;18.08;14.20;;;;;;;;;;5039693;28;20116;-76
2022/03/17 11:15:12;;;;;;;19.77;15.55;;;;;;;;;;5049612;28;20504;-77
2022/03/17 11:17:42;;;;;;;19.05;14.60;;;;;;;;;;5049048;28;20032;-77
2022/03/17 11:20:09;;;;;;;21.70;14.80;;;;;;;;;;5049989;28;20037;-78
2022/03/17 11:22:36;;;;;;;18.13;13.68;;;;;;;;;;5049518;28;20052;-76
2022/03/17 11:25:19;;;;;;;19.20;14.40;;;;;;;;;;5050207;28;20043;-77
2022/03/17 11:27:48;;;;;;;17.52;14.07;;;;;;;;;;5032715;28;20014;-76
2022/03/17 11:30:15;;;;;;;17.20;13.07;;;;;;;;;;5042234;28;20033;-76
2022/03/17 11:32:54;;;;;;;21.58;15.68;;;;;;;;;;5029301;28;20056;-77
2022/03/17 11:35:21;;;;;;;21.55;16.77;;;;;;;;;;5046798;28;20086;-77
2022/03/17 11:37:47;;;;;;;19.73;16.00;;;;;;;;;;5049489;28;20037;-77
2022/03/17 11:40:14;;;;;;;19.15;14.73;;;;;;;;;;5050564;28;20490;-78
2022/03/17 11:42:52;;;;;;;18.85;14.35;;;;;;;;;;5038354;28;20496;-77
2022/03/17 11:45:19;;;;;;;18.95;14.52;;;;;;;;;;5036956;28;20488;-73
2022/03/17 11:47:46;;;;;;;19.48;15.93;;;;;;;;;;5050632;28;20691;-75
2022/03/17 11:50:24;;;;;;;17.02;13.75;;;;;;;;;;5050651;28;20039;-77
2022/03/17 11:53:00;;;;;;;14.82;11.85;;;;;;;;;;5051564;28;20496;-75
2022/03/17 11:55:36;;;;;;;15.07;11.73;;;;;;;;;;5050723;28;20025;-76
2022/03/17 11:58:24;;;;;;;12.15;10.32;;;;;;;;;;5050483;28;20042;-79
2022/03/17 12:00:54;;;;;;;14.93;11.68;;;;;;;;;;5052465;28;20113;-76
2022/03/17 12:03:44;;;;;;;16.05;12.90;;;;;;;;;;5054396;28;20025;-78
2022/03/17 12:06:14;;;;;;;15.48;11.10;;;;;;;;;;5053059;28;20492;-78
2022/03/17 12:08:50;;;;;;;12.63;10.15;;;;;;;;;;5054314;28;20040;-82
2022/03/17 12:11:16;;;;;;;13.57;10.75;;;;;;;;;;5052919;28;20036;-80
2022/03/17 12:13:44;;;;;;;12.82;9.90;;;;;;;;;;5054163;28;20028;-77
2022/03/17 12:16:13;;;;;;;10.77;9.00;;;;;;;;;;5053833;28;20032;-80
2022/03/17 12:19:00;;;;;;;12.35;9.45;;;;;;;;;;5052717;28;20045;-79
2022/03/17 12:21:45;;;;;;;11.52;8.35;;;;;;;;;;5051909;28;20027;-79
2022/03/17 12:24:11;;;;;;;13.25;9.73;;;;;;;;;;5049829;28;20124;-75
2022/03/17 12:26:37;;;;;;;13.45;10.32;;;;;;;;;;5046420;28;20029;-76
2022/03/17 12:29:07;;;;;;;12.82;9.73;;;;;;;;;;5054352;28;20037;-76
2022/03/17 12:31:33;;;;;;;13.13;9.20;;;;;;;;;;5054006;28;20171;-76
2022/03/17 12:33:59;;;;;;;19.13;13.43;;;;;;;;;;5053883;28;20029;-76
2022/03/17 12:36:25;;;;;;;17.10;12.70;;;;;;;;;;5053926;28;20036;-77
2022/03/17 12:38:51;;;;;;;12.23;10.10;;;;;;;;;;5056943;28;20041;-77
2022/03/17 12:41:19;;;;;;;13.18;10.00;;;;;;;;;;5054587;28;20064;-77
2022/03/17 12:43:46;;;;;;;10.32;8.50;;;;;;;;;;5052877;28;20120;-78
2022/03/17 12:46:15;;;;;;;12.07;9.18;;;;;;;;;;5053811;28;20056;-77
2022/03/17 12:48:41;;;;;;;12.95;10.23;;;;;;;;;;5051781;28;20029;-75
2022/03/17 12:51:11;;;;;;;11.63;8.90;;;;;;;;;;5054097;28;20052;-75
2022/03/17 12:53:40;;;;;;;10.38;9.27;;;;;;;;;;5052807;28;20075;-76
2022/03/17 12:56:06;;;;;;;10.55;8.23;;;;;;;;;;5036428;28;20113;-81
2022/03/17 12:58:44;;;;;;;13.93;10.75;;;;;;;;;;5053363;28;20033;-78
2022/03/17 13:01:14;;;;;;;13.48;12.07;;;;;;;;;;5053516;28;20024;-77
2022/03/17 13:03:40;;;;;;;13.45;9.45;;;;;;;;;;5053801;28;20041;-78
2022/03/17 13:08:51;;;;;;;12.45;9.18;;;;;;;;;;5052132;28;20082;-78
2022/03/17 13:14:20;;;;;;;10.70;8.38;;;;;;;;;;5053548;28;20079;-78
2022/03/17 13:16:46;;;;;;;11.90;9.48;;;;;;;;;;5049941;28;20031;-77
2022/03/17 13:19:13;;;;;;;13.27;10.48;;;;;;;;;;5051634;28;20140;-77
2022/03/17 13:21:40;;;;;;;12.50;10.18;;;;;;;;;;5052678;28;20079;-78
2022/03/17 13:24:16;;;;;;;12.55;9.40;;;;;;;;;;5053703;28;20088;-77
2022/03/17 13:26:42;;;;;;;12.23;9.63;;;;;;;;;;5053241;28;20083;-77
2022/03/17 13:29:08;;;;;;;11.32;9.43;;;;;;;;;;5045682;28;20055;-79
2022/03/17 13:31:52;;;;;;;9.68;7.80;;;;;;;;;;5049909;28;20043;-77
2022/03/17 13:34:37;;;;;;;8.87;7.20;;;;;;;;;;5049817;28;20039;-77
2022/03/17 13:37:09;;;;;;;10.75;8.93;;;;;;;;;;5052002;28;20388;-79
2022/03/17 13:39:36;;;;;;;13.07;8.32;;;;;;;;;;5050851;28;20452;-77
2022/03/17 13:42:06;;;;;;;13.13;9.95;;;;;;;;;;5053475;28;20032;-77
2022/03/17 13:44:47;;;;;;;12.60;9.88;;;;;;;;;;5052162;28;20035;-80
2022/03/17 13:47:16;;;;;;;13.88;11.00;;;;;;;;;;5052768;28;20114;-76
2022/03/17 13:49:42;;;;;;;12.93;11.30;;;;;;;;;;5052829;28;20021;-77
2022/03/17 13:52:10;;;;;;;14.30;10.32;;;;;;;;;;5052015;28;20055;-77
2022/03/17 13:54:41;;;;;;;12.60;10.88;;;;;;;;;;5051197;28;20160;-76
2022/03/17 13:57:07;;;;;;;11.00;9.73;;;;;;;;;;5047021;28;20464;-77
2022/03/17 13:59:33;;;;;;;14.30;10.65;;;;;;;;;;5034950;28;20095;-77
2022/03/17 14:02:18;;;;;;;13.95;11.70;;;;;;;;;;5052217;28;20029;-77
2022/03/17 14:04:57;;;;;;;16.95;14.05;;;;;;;;;;5052848;28;20082;-78
2022/03/17 14:07:23;;;;;;;16.77;14.23;;;;;;;;;;5037009;28;20051;-77
2022/03/17 14:09:50;;;;;;;16.73;13.02;;;;;;;;;;5052972;28;20021;-76
2022/03/17 14:12:17;;;;;;;14.82;11.40;;;;;;;;;;5052594;28;20064;-79
2022/03/17 14:14:45;;;;;;;13.90;10.93;;;;;;;;;;5052889;28;20457;-76
2022/03/17 14:17:11;;;;;;;15.35;12.63;;;;;;;;;;5044535;28;20040;-77
2022/03/17 14:19:40;;;;;;;16.38;14.68;;;;;;;;;;5043117;28;20040;-76
2022/03/17 14:24:51;;;;;;;13.70;10.73;;;;;;;;;;5032710;28;20091;-76
2022/03/17 14:27:17;;;;;;;14.95;10.38;;;;;;;;;;5049500;28;20502;-78
2022/03/17 14:29:44;;;;;;;11.73;9.30;;;;;;;;;;5052122;28;20426;-76
2022/03/17 14:32:10;;;;;;;14.95;11.95;;;;;;;;;;5052387;28;20025;-77
2022/03/17 14:34:36;;;;;;;12.75;10.60;;;;;;;;;;5051951;28;20025;-76
2022/03/17 14:37:03;;;;;;;10.98;9.75;;;;;;;;;;5051656;28;20091;-76
2022/03/17 14:39:30;;;;;;;11.80;9.57;;;;;;;;;;5051745;28;20577;-76
2022/03/17 14:41:56;;;;;;;14.90;11.35;;;;;;;;;;5052449;28;20033;-76
2022/03/17 14:44:22;;;;;;;11.32;9.57;;;;;;;;;;5051134;28;20043;-78
2022/03/17 14:46:51;;;;;;;15.02;11.93;;;;;;;;;;5051839;28;20032;-76
2022/03/17 14:49:17;;;;;;;14.65;12.98;;;;;;;;;;5051787;28;20112;-78
2022/03/17 14:51:43;;;;;;;14.57;12.60;;;;;;;;;;5051827;28;20060;-77